Time;durP1;ratioP1;P1;durP2;ratioP2;P2;SDS_P1;SDS_P2;PMS_P1;PMS_P2;Temp;Humidity;BMP_temperature;BMP_pressure;BME280_temperature;BME280_humidity;BME280_pressure;Samples;Min_cycle;Max_cycle;Signal;HPM_P1;HPM_P2
2022/11/05 00:09:31;;;;;;;0.00;0.00;;;15.50;93.40;;;;;;4192353;28;20582;-63
2022/11/05 00:18:11;;;;;;;0.00;0.00;;;15.50;93.30;;;;;;4192145;28;20178;-63
2022/11/05 00:20:52;;;;;;;0.00;0.00;;;15.50;93.30;;;;;;4192390;28;20407;-63
2022/11/05 00:26:31;;;;;;;0.00;0.00;;;15.40;93.30;;;;;;4192528;28;20182;-63
2022/11/05 00:29:12;;;;;;;0.10;0.10;;;15.40;93.30;;;;;;4195856;28;20124;-62
2022/11/05 00:31:52;;;;;;;0.00;0.00;;;15.40;93.30;;;;;;4207029;28;20055;-63
2022/11/05 00:34:35;;;;;;;0.00;0.00;;;15.40;93.30;;;;;;4209000;28;20186;-62
2022/11/05 00:37:15;;;;;;;0.05;0.05;;;15.40;93.30;;;;;;4208753;28;20059;-63
2022/11/05 00:39:56;;;;;;;0.00;0.00;;;15.40;93.30;;;;;;4208858;28;20417;-63
2022/11/05 00:45:38;;;;;;;0.00;0.00;;;15.40;93.40;;;;;;4178593;27;20668;-63
2022/11/05 00:51:18;;;;;;;0.10;0.10;;;15.40;93.40;;;;;;4175115;28;20392;-63
2022/11/05 00:53:59;;;;;;;0.00;0.00;;;15.30;93.30;;;;;;4178901;28;20055;-62
2022/11/05 00:56:40;;;;;;;0.00;0.00;;;15.30;93.40;;;;;;4195315;28;20154;-63
2022/11/05 00:59:22;;;;;;;1.27;1.27;;;15.40;93.40;;;;;;4195471;28;20553;-63
2022/11/05 01:02:02;;;;;;;0.00;0.00;;;15.40;93.40;;;;;;4195801;28;20117;-63
2022/11/05 01:04:43;;;;;;;0.00;0.00;;;15.40;93.40;;;;;;4182773;28;20179;-63
2022/11/05 01:07:26;;;;;;;0.00;0.00;;;15.30;93.40;;;;;;4178559;28;20052;-63
2022/11/05 01:10:07;;;;;;;0.00;0.00;;;15.30;93.40;;;;;;4181959;28;20063;-63
2022/11/05 01:12:48;;;;;;;;;;;15.30;93.40;;;;;;4194239;28;20060;-63
2022/11/05 01:15:29;;;;;;;1.30;1.08;;;15.30;93.40;;;;;;4178173;28;20066;-63
2022/11/05 01:18:10;;;;;;;0.00;0.00;;;15.30;93.40;;;;;;4185754;27;20811;-62
2022/11/05 01:20:51;;;;;;;0.00;0.00;;;15.30;93.40;;;;;;4178209;28;20777;-63
2022/11/05 01:23:33;;;;;;;0.00;0.00;;;15.30;93.40;;;;;;4189059;28;20052;-63
2022/11/05 01:26:14;;;;;;;0.00;0.00;;;15.30;93.40;;;;;;4194780;28;20047;-63
2022/11/05 01:28:55;;;;;;;0.00;0.00;;;15.30;93.40;;;;;;4195029;28;20055;-62
2022/11/05 01:31:36;;;;;;;0.00;0.00;;;15.30;93.40;;;;;;4194880;28;20060;-62
2022/11/05 01:34:17;;;;;;;0.00;0.00;;;15.30;93.40;;;;;;4194549;28;20542;-63
2022/11/05 01:36:58;;;;;;;0.55;0.55;;;15.30;93.40;;;;;;4204938;27;20055;-63
2022/11/05 01:39:40;;;;;;;0.30;0.30;;;15.30;93.40;;;;;;4194340;28;20051;-63
2022/11/05 01:42:23;;;;;;;0.00;0.00;;;15.30;93.40;;;;;;4194085;28;20059;-62
2022/11/05 01:45:12;;;;;;;0.00;0.00;;;15.30;93.40;;;;;;4178228;28;20076;-62
2022/11/05 01:48:03;;;;;;;0.00;0.00;;;15.20;93.40;;;;;;4177889;28;20111;-62
2022/11/05 01:50:48;;;;;;;0.00;0.00;;;15.20;93.40;;;;;;4178168;28;20790;-62
2022/11/05 01:53:34;;;;;;;0.00;0.00;;;15.20;93.40;;;;;;4180220;28;20575;-62
2022/11/05 01:56:20;;;;;;;0.00;0.00;;;15.20;93.40;;;;;;4178000;28;20060;-62
2022/11/05 01:59:05;;;;;;;0.00;0.00;;;15.20;93.40;;;;;;4177699;28;20060;-63
2022/11/05 02:01:46;;;;;;;0.00;0.00;;;15.20;93.40;;;;;;4178096;28;20174;-63
2022/11/05 02:04:34;;;;;;;0.00;0.00;;;15.20;93.40;;;;;;4176760;28;20060;-63
2022/11/05 02:07:16;;;;;;;0.00;0.00;;;15.20;93.40;;;;;;4177804;28;20072;-63
2022/11/05 02:10:02;;;;;;;0.00;0.00;;;15.20;93.40;;;;;;4164678;28;20137;-62
2022/11/05 02:12:46;;;;;;;0.00;0.00;;;15.20;93.40;;;;;;4176550;28;20522;-62
2022/11/05 02:15:38;;;;;;;0.00;0.00;;;15.20;93.40;;;;;;4177347;28;20051;-62
2022/11/05 02:18:31;;;;;;;11.10;1.45;;;15.20;93.40;;;;;;4175440;28;20052;-64
2022/11/05 02:21:41;;;;;;;0.00;0.00;;;15.20;93.40;;;;;;4176974;28;20056;-64
2022/11/05 02:24:50;;;;;;;0.00;0.00;;;15.10;93.40;;;;;;4176966;28;20056;-64
2022/11/05 02:27:53;;;;;;;0.00;0.00;;;15.20;93.40;;;;;;4179878;28;20785;-64
2022/11/05 02:30:47;;;;;;;0.00;0.00;;;15.20;93.80;;;;;;4193526;28;20669;-66
2022/11/05 02:33:43;;;;;;;0.00;0.00;;;15.10;93.40;;;;;;4192994;28;20056;-64
2022/11/05 02:36:36;;;;;;;0.00;0.00;;;15.10;93.40;;;;;;4193484;28;20149;-64
2022/11/05 02:39:29;;;;;;;0.00;0.00;;;15.10;93.40;;;;;;4210079;28;20181;-65
2022/11/05 02:42:21;;;;;;;0.05;0.05;;;15.10;93.40;;;;;;4186753;28;20121;-64
2022/11/05 02:45:10;;;;;;;0.20;0.20;;;15.10;93.40;;;;;;4208243;28;20149;-63
2022/11/05 02:47:58;;;;;;;0.00;0.00;;;15.10;93.40;;;;;;4210465;28;20150;-63
2022/11/05 02:50:49;;;;;;;0.00;0.00;;;15.10;93.40;;;;;;4208301;28;20177;-63
2022/11/05 02:53:38;;;;;;;0.65;0.65;;;15.10;93.40;;;;;;4191995;28;20058;-62
2022/11/05 02:56:22;;;;;;;0.57;0.35;;;15.10;93.80;;;;;;4194281;28;20198;-63
2022/11/05 02:59:03;;;;;;;0.00;0.00;;;15.10;93.40;;;;;;4193600;28;20055;-63
2022/11/05 03:01:46;;;;;;;0.00;0.00;;;15.00;93.40;;;;;;4193311;28;20074;-63
2022/11/05 03:04:31;;;;;;;0.10;0.10;;;15.10;93.40;;;;;;4194295;28;20051;-62
2022/11/05 03:07:35;;;;;;;0.10;0.10;;;15.00;93.40;;;;;;4208100;28;20453;-63
2022/11/05 03:10:36;;;;;;;0.00;0.00;;;15.00;93.40;;;;;;4209824;28;20050;-64
2022/11/05 03:13:26;;;;;;;0.00;0.00;;;15.00;93.40;;;;;;4209939;28;20054;-63
2022/11/05 03:16:12;;;;;;;0.00;0.00;;;15.00;93.40;;;;;;4209747;28;20055;-64
2022/11/05 03:19:00;;;;;;;0.00;0.00;;;15.00;93.40;;;;;;4209386;28;20066;-63
2022/11/05 03:21:49;;;;;;;0.00;0.00;;;15.00;93.40;;;;;;4193151;28;20060;-63
2022/11/05 03:24:33;;;;;;;0.00;0.00;;;15.00;93.40;;;;;;4192915;28;20051;-62
2022/11/05 03:27:18;;;;;;;0.00;0.00;;;15.00;93.40;;;;;;4192321;28;20120;-63
2022/11/05 03:30:02;;;;;;;0.00;0.00;;;15.00;93.40;;;;;;4191609;28;20043;-63
2022/11/05 03:32:47;;;;;;;0.00;0.00;;;15.00;93.40;;;;;;4192760;28;20060;-63
2022/11/05 03:35:31;;;;;;;0.00;0.00;;;15.00;93.80;;;;;;4192544;28;20047;-63
2022/11/05 03:38:19;;;;;;;0.30;0.30;;;15.00;93.50;;;;;;4178844;28;20052;-63
2022/11/05 03:41:06;;;;;;;0.00;0.00;;;15.00;93.40;;;;;;4209618;28;20047;-63
2022/11/05 03:43:51;;;;;;;0.00;0.00;;;15.00;93.50;;;;;;4209431;28;20059;-63
2022/11/05 03:46:38;;;;;;;0.00;0.00;;;15.00;93.50;;;;;;4209471;28;20082;-63
2022/11/05 03:49:21;;;;;;;0.00;0.00;;;15.00;93.50;;;;;;4209372;28;20394;-63
2022/11/05 03:52:06;;;;;;;0.00;0.00;;;14.90;93.50;;;;;;4209549;28;20055;-60
2022/11/05 03:54:48;;;;;;;0.00;0.00;;;14.90;93.40;;;;;;4192645;28;20083;-62
2022/11/05 03:57:32;;;;;;;0.00;0.00;;;14.90;93.50;;;;;;4205770;28;20178;-62
2022/11/05 04:00:14;;;;;;;0.00;0.00;;;14.90;93.50;;;;;;4209416;28;20050;-62
2022/11/05 04:02:54;;;;;;;;;;;14.90;93.50;;;;;;4208791;28;20162;-62
2022/11/05 04:05:35;;;;;;;0.00;0.00;;;14.90;93.40;;;;;;4208851;28;19969;-63
2022/11/05 04:14:13;;;;;;;0.00;0.00;;;14.90;93.50;;;;;;4193199;28;20059;-63
2022/11/05 04:17:05;;;;;;;0.10;0.10;;;14.90;93.50;;;;;;4192063;28;20442;-63
2022/11/05 04:25:42;;;;;;;0.00;0.00;;;14.90;93.50;;;;;;4199055;28;20150;-62
2022/11/05 04:30:17;;;;;;;0.00;0.00;;;14.90;93.50;;;;;;4208961;28;20062;-63
2022/11/05 04:31:24;;;;;;;0.10;0.10;;;14.80;93.50;;;;;;4207035;28;20050;-63
2022/11/05 04:34:05;;;;;;;0.00;0.00;;;14.80;93.50;;;;;;4208830;28;20105;-63
2022/11/05 04:36:48;;;;;;;0.05;0.05;;;14.90;93.50;;;;;;4208656;28;20493;-63
2022/11/05 04:39:29;;;;;;;0.00;0.00;;;14.80;93.50;;;;;;4203758;28;20063;-63
2022/11/05 04:42:10;;;;;;;0.30;0.30;;;14.80;93.40;;;;;;4175806;28;20044;-59
2022/11/05 04:44:52;;;;;;;0.00;0.00;;;14.80;93.80;;;;;;4175650;28;20064;-59
2022/11/05 04:47:33;;;;;;;0.00;0.00;;;14.80;93.50;;;;;;4191705;28;20056;-59
2022/11/05 04:50:14;;;;;;;0.00;0.00;;;14.80;93.40;;;;;;4193206;28;20047;-60
2022/11/05 04:52:56;;;;;;;0.00;0.00;;;14.90;93.50;;;;;;4191994;28;20056;-59
2022/11/05 04:55:36;;;;;;;0.10;0.10;;;14.80;93.30;;;;;;4193641;28;20182;-60
2022/11/05 04:58:17;;;;;;;0.00;0.00;;;14.80;93.50;;;;;;4208706;28;20494;-60
2022/11/05 05:01:00;;;;;;;0.00;0.00;;;14.80;93.50;;;;;;4208550;28;20048;-60
2022/11/05 05:03:41;;;;;;;13.85;1.38;;;14.80;93.50;;;;;;4207256;28;20047;-60
2022/11/05 05:06:22;;;;;;;0.00;0.00;;;14.80;93.50;;;;;;4207368;28;20164;-63
2022/11/05 05:09:03;;;;;;;;;;;14.80;93.50;;;;;;4175605;28;20056;-63
2022/11/05 05:11:44;;;;;;;0.00;0.00;;;14.80;93.50;;;;;;4175702;28;20445;-63
2022/11/05 05:14:25;;;;;;;0.00;0.00;;;14.80;93.50;;;;;;4179917;28;20055;-63
2022/11/05 05:17:08;;;;;;;0.00;0.00;;;14.80;93.50;;;;;;4191686;28;20403;-63
2022/11/05 05:22:52;;;;;;;0.00;0.00;;;14.70;93.40;;;;;;4191069;28;20194;-64
2022/11/05 05:25:33;;;;;;;0.00;0.00;;;14.70;93.40;;;;;;4192672;28;20593;-63
2022/11/05 05:28:14;;;;;;;0.00;0.00;;;14.70;93.50;;;;;;4191737;28;20114;-63
2022/11/05 05:30:59;;;;;;;0.00;0.00;;;14.70;93.50;;;;;;4174730;28;20226;-63
2022/11/05 05:33:41;;;;;;;0.00;0.00;;;14.70;93.50;;;;;;4175286;28;20055;-63
2022/11/05 05:36:22;;;;;;;0.00;0.00;;;14.70;93.50;;;;;;4174986;28;20487;-63
2022/11/05 05:39:05;;;;;;;0.00;0.00;;;14.70;93.50;;;;;;4175913;28;20186;-63
2022/11/05 05:41:46;;;;;;;0.10;0.10;;;14.70;93.50;;;;;;4185363;28;20080;-64
2022/11/05 05:44:27;;;;;;;0.00;0.00;;;14.70;93.50;;;;;;4194978;28;20186;-63
2022/11/05 05:47:08;;;;;;;0.00;0.00;;;14.70;93.50;;;;;;4194073;28;20514;-67
2022/11/05 05:49:50;;;;;;;0.00;0.00;;;14.70;93.60;;;;;;4209410;28;20054;-64
2022/11/05 05:52:31;;;;;;;0.00;0.00;;;14.70;93.80;;;;;;4204092;28;20077;-63
2022/11/05 05:55:12;;;;;;;0.00;0.00;;;14.80;93.80;;;;;;4177996;28;20056;-64
2022/11/05 05:57:54;;;;;;;0.00;0.00;;;14.80;93.70;;;;;;4184094;28;20060;-64
2022/11/05 06:00:35;;;;;;;1.75;1.65;;;14.80;93.60;;;;;;4195223;28;20047;-63
2022/11/05 06:03:16;;;;;;;3.33;2.42;;;14.80;93.60;;;;;;4194325;28;20062;-64
2022/11/05 06:06:02;;;;;;;5.00;1.88;;;14.80;93.60;;;;;;4194087;28;20058;-64
2022/11/05 06:08:43;;;;;;;0.10;0.10;;;14.70;93.50;;;;;;4200891;28;20486;-64
2022/11/05 06:11:24;;;;;;;0.00;0.00;;;14.70;93.50;;;;;;4211197;28;20046;-64
2022/11/05 06:14:05;;;;;;;0.00;0.00;;;14.70;93.50;;;;;;4210872;28;20407;-65
2022/11/05 06:16:46;;;;;;;0.00;0.00;;;14.70;93.50;;;;;;4208770;28;20500;-66
2022/11/05 06:19:28;;;;;;;0.03;0.03;;;14.70;93.50;;;;;;4210664;28;20051;-66
2022/11/05 06:22:10;;;;;;;0.65;0.65;;;14.70;93.50;;;;;;4208841;28;20042;-65
2022/11/05 06:24:51;;;;;;;0.00;0.00;;;14.70;93.50;;;;;;4193964;28;20056;-65
2022/11/05 06:27:32;;;;;;;0.00;0.00;;;14.70;93.50;;;;;;4206606;28;20494;-65
2022/11/05 06:30:13;;;;;;;0.00;0.00;;;14.70;93.50;;;;;;4184552;28;20186;-67
2022/11/05 06:32:54;;;;;;;;;;;14.70;93.50;;;;;;4210677;28;20521;-66
2022/11/05 06:35:36;;;;;;;0.65;0.65;;;14.70;93.50;;;;;;4208734;28;20388;-65
2022/11/05 06:38:17;;;;;;;0.00;0.00;;;14.70;93.40;;;;;;4210471;28;20046;-65
2022/11/05 06:40:59;;;;;;;6.45;2.28;;;14.70;93.50;;;;;;4210332;28;20051;-66
2022/11/05 06:43:41;;;;;;;0.00;0.00;;;14.60;93.40;;;;;;4210259;28;20551;-66
2022/11/05 06:46:22;;;;;;;0.00;0.00;;;14.70;93.50;;;;;;4208944;28;20071;-66
2022/11/05 06:49:03;;;;;;;1.77;1.60;;;14.60;93.50;;;;;;4210309;28;20051;-66
2022/11/05 06:51:44;;;;;;;0.00;0.00;;;14.60;93.50;;;;;;4209549;28;20133;-66
2022/11/05 06:54:26;;;;;;;1.38;1.00;;;14.60;93.50;;;;;;4177032;28;20052;-66
2022/11/05 06:57:08;;;;;;;0.00;0.00;;;14.60;93.50;;;;;;4175245;28;20124;-65
2022/11/05 06:59:49;;;;;;;0.00;0.00;;;14.60;93.50;;;;;;4176565;28;20094;-65
2022/11/05 07:02:31;;;;;;;0.00;0.00;;;14.60;93.50;;;;;;4176729;28;20103;-65
2022/11/05 07:05:12;;;;;;;0.17;0.17;;;14.60;93.50;;;;;;4176669;28;20109;-65
2022/11/05 07:07:53;;;;;;;0.22;0.22;;;14.60;93.50;;;;;;4176561;28;20051;-65
2022/11/05 07:10:35;;;;;;;0.00;0.00;;;14.60;93.50;;;;;;4186469;27;20059;-65
2022/11/05 07:13:16;;;;;;;0.00;0.00;;;14.60;93.50;;;;;;4193011;28;20047;-65
2022/11/05 07:15:57;;;;;;;0.00;0.00;;;14.60;93.50;;;;;;4176309;28;20145;-66
2022/11/05 07:18:38;;;;;;;0.00;0.00;;;14.60;93.50;;;;;;4176379;28;20183;-66
2022/11/05 07:21:19;;;;;;;0.00;0.00;;;14.60;93.50;;;;;;4176448;28;20283;-66
2022/11/05 07:23:59;;;;;;;0.10;0.10;;;14.60;93.50;;;;;;4188563;28;20477;-66
2022/11/05 07:26:42;;;;;;;0.00;0.00;;;14.60;93.50;;;;;;4192990;28;20178;-65
2022/11/05 07:29:22;;;;;;;0.00;0.00;;;14.60;93.50;;;;;;4176645;28;20091;-65
2022/11/05 07:32:04;;;;;;;0.00;0.00;;;14.60;93.50;;;;;;4176581;28;20392;-66
2022/11/05 07:34:44;;;;;;;0.00;0.00;;;14.60;93.50;;;;;;4175958;28;20056;-66
2022/11/05 07:37:25;;;;;;;7.43;0.75;;;14.60;93.50;;;;;;4176054;28;20048;-65
2022/11/05 07:40:08;;;;;;;0.00;0.00;;;14.50;93.80;;;;;;4175852;28;20052;-66
2022/11/05 07:42:54;;;;;;;0.00;0.00;;;14.50;93.50;;;;;;4175933;28;20056;-66
2022/11/05 07:45:35;;;;;;;0.03;0.03;;;14.50;93.50;;;;;;4192210;28;20052;-65
2022/11/05 07:48:15;;;;;;;0.00;0.00;;;14.50;93.50;;;;;;4192590;28;20047;-65
2022/11/05 07:50:57;;;;;;;0.10;0.10;;;14.50;93.50;;;;;;4192735;28;20052;-65
2022/11/05 07:53:38;;;;;;;0.00;0.00;;;14.50;93.50;;;;;;4192349;28;20391;-65
2022/11/05 07:56:24;;;;;;;0.00;0.00;;;14.50;93.50;;;;;;4192301;28;20098;-66
2022/11/05 07:59:06;;;;;;;0.10;0.10;;;14.50;93.50;;;;;;4190599;28;20517;-66
2022/11/05 08:01:47;;;;;;;0.00;0.00;;;14.50;93.50;;;;;;4190761;28;20051;-66
2022/11/05 08:04:28;;;;;;;0.00;0.00;;;14.50;93.50;;;;;;4208796;27;20064;-69
2022/11/05 08:07:09;;;;;;;0.00;0.00;;;14.50;93.50;;;;;;4208630;27;20059;-67
2022/11/05 08:09:50;;;;;;;0.00;0.00;;;14.50;93.50;;;;;;4192102;28;20438;-66
2022/11/05 08:12:32;;;;;;;0.00;0.00;;;14.50;93.50;;;;;;4208785;28;20055;-65
2022/11/05 08:15:14;;;;;;;1.27;0.75;;;14.50;93.40;;;;;;4208322;28;20301;-67
2022/11/05 08:17:59;;;;;;;0.00;0.00;;;14.50;93.50;;;;;;4208793;28;20140;-66
2022/11/05 08:20:41;;;;;;;0.00;0.00;;;14.50;93.50;;;;;;4207165;28;20050;-66
2022/11/05 08:23:23;;;;;;;0.00;0.00;;;14.50;93.50;;;;;;4205265;27;20215;-66
2022/11/05 08:26:04;;;;;;;1.00;1.00;;;14.50;93.40;;;;;;4201976;27;20522;-66
2022/11/05 08:28:45;;;;;;;0.00;0.00;;;14.50;93.40;;;;;;4191988;28;20069;-66
2022/11/05 08:31:29;;;;;;;0.00;0.00;;;14.50;93.40;;;;;;4192374;28;20052;-66
2022/11/05 08:34:13;;;;;;;0.00;0.00;;;14.50;93.40;;;;;;4192021;28;20430;-66
2022/11/05 08:36:54;;;;;;;0.00;0.00;;;14.50;93.40;;;;;;4190511;28;20159;-66
2022/11/05 08:39:35;;;;;;;0.00;0.00;;;14.50;93.40;;;;;;4180494;28;20172;-66
2022/11/05 08:42:16;;;;;;;0.00;0.00;;;14.50;93.40;;;;;;4192271;28;20059;-65
2022/11/05 08:44:57;;;;;;;0.22;0.22;;;14.50;93.80;;;;;;4208597;28;20059;-65
2022/11/05 08:47:39;;;;;;;0.00;0.00;;;14.50;93.40;;;;;;4208719;28;20098;-66
2022/11/05 08:50:20;;;;;;;0.00;0.00;;;14.50;93.40;;;;;;4208727;28;20055;-65
2022/11/05 08:53:01;;;;;;;1.50;0.55;;;14.50;93.40;;;;;;4203012;28;20113;-65
2022/11/05 08:55:42;;;;;;;0.00;0.00;;;14.50;93.40;;;;;;4201884;28;20051;-65
2022/11/05 08:58:24;;;;;;;1.25;0.93;;;14.50;93.40;;;;;;4208251;28;20051;-65
2022/11/05 09:01:05;;;;;;;2.38;1.38;;;14.50;93.40;;;;;;4208283;28;20047;-66
2022/11/05 09:03:51;;;;;;;0.00;0.00;;;14.50;93.40;;;;;;4208877;28;20105;-64
2022/11/05 09:06:31;;;;;;;0.00;0.00;;;14.50;93.40;;;;;;4208050;28;20073;-64
2022/11/05 09:09:12;;;;;;;0.30;0.30;;;14.50;93.40;;;;;;4208500;28;20059;-66
2022/11/05 09:11:53;;;;;;;0.00;0.00;;;14.50;93.40;;;;;;4208852;28;20126;-66
2022/11/05 09:14:52;;;;;;;0.20;0.20;;;14.40;93.30;;;;;;4211368;28;20059;-65
2022/11/05 09:17:32;;;;;;;0.00;0.00;;;14.50;93.20;;;;;;4209166;28;20124;-65
2022/11/05 09:20:14;;;;;;;0.88;0.88;;;14.50;93.30;;;;;;4211755;28;20503;-65
2022/11/05 09:22:55;;;;;;;0.00;0.00;;;14.40;93.30;;;;;;4206857;28;20182;-66
2022/11/05 09:25:37;;;;;;;0.10;0.10;;;14.50;93.70;;;;;;4194757;28;20047;-65
2022/11/05 09:28:21;;;;;;;0.00;0.00;;;14.50;93.30;;;;;;4194578;28;20055;-63
2022/11/05 09:31:06;;;;;;;0.57;0.30;;;14.40;93.30;;;;;;4194826;28;20524;-64
2022/11/05 09:33:46;;;;;;;0.00;0.00;;;14.50;93.30;;;;;;4177070;28;20052;-64
2022/11/05 09:36:28;;;;;;;0.00;0.00;;;14.50;93.30;;;;;;4177807;28;20186;-64
2022/11/05 09:39:09;;;;;;;0.08;0.08;;;14.50;93.30;;;;;;4178284;28;20060;-64
2022/11/05 09:41:52;;;;;;;0.00;0.00;;;14.50;93.30;;;;;;4178173;28;20495;-64
2022/11/05 09:44:41;;;;;;;0.30;0.30;;;14.50;93.20;;;;;;4176960;28;20060;-64
2022/11/05 09:47:26;;;;;;;0.00;0.00;;;14.50;93.20;;;;;;4178063;28;20407;-64
2022/11/05 09:50:12;;;;;;;0.00;0.00;;;14.50;93.20;;;;;;4205906;27;20185;-65
2022/11/05 09:52:55;;;;;;;0.00;0.00;;;14.50;93.20;;;;;;4211374;27;20399;-66
2022/11/05 09:55:39;;;;;;;0.00;0.00;;;14.50;93.20;;;;;;4211028;27;20050;-65
2022/11/05 09:58:25;;;;;;;0.00;0.00;;;14.50;93.20;;;;;;4211037;27;20063;-65
2022/11/05 10:01:14;;;;;;;0.00;0.00;;;14.50;93.20;;;;;;4211061;27;20075;-65
2022/11/05 10:03:59;;;;;;;2.55;0.68;;;14.50;93.10;;;;;;4211000;27;20055;-62
2022/11/05 10:06:46;;;;;;;0.00;0.00;;;14.50;93.10;;;;;;4201108;27;20052;-62
2022/11/05 10:09:33;;;;;;;0.00;0.00;;;14.50;93.10;;;;;;4200622;27;20047;-62
2022/11/05 10:12:21;;;;;;;1.55;0.70;;;14.50;93.50;;;;;;4209461;28;20140;-62
2022/11/05 10:15:10;;;;;;;0.10;0.10;;;14.50;93.10;;;;;;4209229;28;20047;-63
2022/11/05 10:17:57;;;;;;;0.00;0.00;;;14.50;93.00;;;;;;4210464;28;20105;-63
2022/11/05 10:20:39;;;;;;;0.10;0.10;;;14.50;93.00;;;;;;4210589;28;20054;-64
2022/11/05 10:23:22;;;;;;;0.30;0.30;;;14.50;93.00;;;;;;4202355;28;20125;-63
2022/11/05 10:26:08;;;;;;;0.00;0.00;;;14.60;93.00;;;;;;4193117;28;20044;-62
2022/11/05 10:28:49;;;;;;;0.98;0.98;;;14.60;93.00;;;;;;4193293;28;20218;-62
2022/11/05 10:31:34;;;;;;;0.10;0.10;;;14.60;93.00;;;;;;4207293;28;20509;-63
2022/11/05 10:34:16;;;;;;;0.00;0.00;;;14.60;93.00;;;;;;4210658;28;20202;-63
2022/11/05 10:36:57;;;;;;;0.00;0.00;;;14.60;93.00;;;;;;4210406;28;20055;-64
2022/11/05 10:39:38;;;;;;;0.10;0.10;;;14.60;93.00;;;;;;4210279;28;20176;-65
2022/11/05 10:42:39;;;;;;;0.00;0.00;;;14.60;93.00;;;;;;4210181;28;20051;-65
2022/11/05 10:45:28;;;;;;;0.00;0.00;;;14.60;93.00;;;;;;4210441;28;20146;-65
2022/11/05 10:48:33;;;;;;;0.00;0.00;;;14.60;93.00;;;;;;4203703;28;20419;-65
2022/11/05 10:51:19;;;;;;;0.00;0.00;;;14.60;93.00;;;;;;4193587;28;20051;-65
2022/11/05 10:54:05;;;;;;;0.03;0.03;;;14.60;93.00;;;;;;4192859;28;20790;-65
2022/11/05 10:56:46;;;;;;;0.00;0.00;;;14.60;93.00;;;;;;4193266;28;20063;-65
2022/11/05 10:59:30;;;;;;;0.00;0.00;;;14.60;93.00;;;;;;4192354;28;20079;-65
2022/11/05 11:02:20;;;;;;;0.00;0.00;;;14.60;93.00;;;;;;4192098;28;20502;-65
2022/11/05 11:05:02;;;;;;;0.80;0.80;;;14.70;93.00;;;;;;4194062;28;20050;-65
2022/11/05 11:07:43;;;;;;;0.00;0.00;;;14.70;93.00;;;;;;4193485;28;20059;-65
2022/11/05 11:10:25;;;;;;;0.00;0.00;;;14.70;92.90;;;;;;4192079;28;20121;-65
2022/11/05 11:13:17;;;;;;;0.00;0.00;;;14.70;92.90;;;;;;4193184;28;20058;-65
2022/11/05 11:16:15;;;;;;;0.00;0.00;;;14.70;93.20;;;;;;4192650;28;20560;-65
2022/11/05 11:18:58;;;;;;;0.00;0.00;;;14.80;92.90;;;;;;4192856;28;20744;-67
2022/11/05 11:21:40;;;;;;;0.00;0.00;;;14.80;92.80;;;;;;4192395;28;20056;-64
2022/11/05 11:24:22;;;;;;;0.00;0.00;;;14.80;92.90;;;;;;4193939;28;20051;-65
2022/11/05 11:27:05;;;;;;;0.00;0.00;;;14.80;92.80;;;;;;4192655;28;20133;-66
2022/11/05 11:29:51;;;;;;;0.00;0.00;;;14.80;92.80;;;;;;4191736;28;20406;-65
2022/11/05 11:32:36;;;;;;;0.00;0.00;;;14.80;92.80;;;;;;4192954;28;20051;-65
2022/11/05 11:35:22;;;;;;;0.35;0.35;;;14.80;93.20;;;;;;4192985;28;20056;-65
2022/11/05 11:38:04;;;;;;;0.00;0.00;;;14.80;92.80;;;;;;4192242;28;20056;-65
2022/11/05 11:40:45;;;;;;;0.00;0.00;;;14.80;92.80;;;;;;4197061;28;20129;-65
2022/11/05 11:43:33;;;;;;;0.00;0.00;;;14.90;92.80;;;;;;4207928;28;20051;-65
2022/11/05 11:46:18;;;;;;;0.00;0.00;;;14.90;92.70;;;;;;4209256;28;20141;-66
2022/11/05 11:49:00;;;;;;;0.00;0.00;;;14.90;92.70;;;;;;4209056;28;20130;-65
2022/11/05 11:51:46;;;;;;;0.00;0.00;;;14.90;92.70;;;;;;4209280;28;20047;-63
2022/11/05 11:54:34;;;;;;;0.00;0.00;;;14.90;92.70;;;;;;4192808;28;20483;-64
2022/11/05 11:57:23;;;;;;;0.00;0.00;;;14.90;92.70;;;;;;4192289;28;20149;-63
2022/11/05 12:00:04;;;;;;;0.15;0.15;;;14.90;92.70;;;;;;4175174;28;20052;-63
2022/11/05 12:03:17;;;;;;;0.00;0.00;;;15.00;92.80;;;;;;4176227;28;20138;-64
2022/11/05 12:06:07;;;;;;;0.00;0.00;;;15.00;92.80;;;;;;4192269;28;20059;-64
2022/11/05 12:08:54;;;;;;;0.00;0.00;;;15.00;92.80;;;;;;4176071;28;20068;-63
2022/11/05 12:11:50;;;;;;;0.00;0.00;;;15.00;92.80;;;;;;4175450;28;20067;-63
2022/11/05 12:14:38;;;;;;;0.00;0.00;;;15.00;92.80;;;;;;4175720;28;20052;-64
2022/11/05 12:17:45;;;;;;;0.00;0.00;;;15.00;92.80;;;;;;4174529;28;20151;-64
2022/11/05 12:20:51;;;;;;;0.00;0.00;;;15.00;92.70;;;;;;4192176;28;20194;-64
2022/11/05 12:23:54;;;;;;;0.00;0.00;;;15.10;92.70;;;;;;4198284;28;20047;-64
2022/11/05 12:26:47;;;;;;;0.00;0.00;;;15.10;92.60;;;;;;4208268;27;20080;-64
2022/11/05 12:29:52;;;;;;;0.00;0.00;;;15.10;92.60;;;;;;4208603;27;20493;-64
2022/11/05 12:32:47;;;;;;;0.00;0.00;;;15.10;92.60;;;;;;4208748;27;20548;-63
2022/11/05 12:35:40;;;;;;;0.00;0.00;;;15.10;92.60;;;;;;4175131;28;20111;-64
2022/11/05 12:38:46;;;;;;;0.10;0.10;;;15.00;92.60;;;;;;4175449;28;20487;-64
2022/11/05 12:41:31;;;;;;;0.20;0.20;;;15.10;92.60;;;;;;4175189;28;20490;-66
2022/11/05 12:44:23;;;;;;;0.00;0.00;;;15.00;92.50;;;;;;4175646;28;20070;-66
2022/11/05 12:47:16;;;;;;;0.00;0.00;;;15.00;92.50;;;;;;4175229;28;20063;-67
2022/11/05 12:50:11;;;;;;;0.00;0.00;;;15.00;92.60;;;;;;4179732;28;20051;-66
2022/11/05 12:53:08;;;;;;;0.00;0.00;;;15.00;92.50;;;;;;4197518;27;20458;-66
2022/11/05 12:55:51;;;;;;;0.17;0.17;;;15.00;92.50;;;;;;4212073;27;20237;-66
2022/11/05 12:58:37;;;;;;;0.00;0.00;;;15.00;92.50;;;;;;4212372;27;20063;-66
2022/11/05 13:01:23;;;;;;;0.00;0.00;;;15.00;92.60;;;;;;4211850;27;20058;-66
2022/11/05 13:04:11;;;;;;;0.00;0.00;;;15.00;92.60;;;;;;4204112;27;20095;-66
2022/11/05 13:06:55;;;;;;;0.00;0.00;;;15.00;92.60;;;;;;4195413;28;20407;-66
2022/11/05 13:09:43;;;;;;;0.00;0.00;;;15.00;92.70;;;;;;4195414;28;20644;-63
2022/11/05 13:12:29;;;;;;;0.22;0.22;;;15.00;92.70;;;;;;4178566;28;20514;-66
2022/11/05 13:15:22;;;;;;;0.00;0.00;;;15.00;92.70;;;;;;4178468;28;20515;-64
2022/11/05 13:18:06;;;;;;;0.00;0.00;;;14.90;92.70;;;;;;4176776;28;20135;-64
2022/11/05 13:20:52;;;;;;;0.00;0.00;;;15.00;92.70;;;;;;4178727;28;20071;-63
2022/11/05 13:23:39;;;;;;;0.00;0.00;;;15.00;92.80;;;;;;4186198;28;20075;-63
2022/11/05 13:26:24;;;;;;;0.10;0.10;;;14.90;92.70;;;;;;4185849;28;20407;-66
2022/11/05 13:29:11;;;;;;;0.00;0.00;;;15.00;92.80;;;;;;4194689;28;20403;-66
2022/11/05 13:31:57;;;;;;;0.00;0.00;;;15.00;92.80;;;;;;4178418;28;20102;-66
2022/11/05 13:34:38;;;;;;;0.00;0.00;;;15.00;92.80;;;;;;4178389;28;20106;-66
2022/11/05 13:40:34;;;;;;;0.00;0.00;;;15.00;92.80;;;;;;4194062;28;20052;-66
2022/11/05 13:43:28;;;;;;;0.00;0.00;;;15.00;93.20;;;;;;4193238;28;20059;-66
2022/11/05 13:46:42;;;;;;;0.00;0.00;;;15.00;93.20;;;;;;4194157;28;20060;-67
2022/11/05 13:49:48;;;;;;;0.00;0.00;;;15.00;92.80;;;;;;4190962;28;20094;-68
2022/11/05 13:53:00;;;;;;;0.05;0.05;;;15.00;92.80;;;;;;4177510;28;20482;-66
2022/11/05 13:56:04;;;;;;;0.00;0.00;;;14.90;92.80;;;;;;4192611;28;20043;-66
2022/11/05 13:59:18;;;;;;;0.00;0.00;;;14.90;92.80;;;;;;4193778;28;20102;-66
2022/11/05 14:02:02;;;;;;;0.10;0.10;;;14.90;92.80;;;;;;4193846;28;20070;-66
2022/11/05 14:04:49;;;;;;;0.00;0.00;;;15.00;92.90;;;;;;4194327;28;20051;-66
2022/11/05 14:07:33;;;;;;;0.00;0.00;;;14.90;92.80;;;;;;4193869;28;20056;-66
2022/11/05 14:10:32;;;;;;;3.10;0.65;;;15.00;92.90;;;;;;4191071;28;20507;-66
2022/11/05 14:13:22;;;;;;;0.00;0.00;;;15.00;92.90;;;;;;4193892;28;20056;-64
2022/11/05 14:16:06;;;;;;;0.00;0.00;;;14.90;92.80;;;;;;4194146;28;20064;-64
2022/11/05 14:18:54;;;;;;;0.00;0.00;;;14.90;92.80;;;;;;4194018;28;20487;-62
2022/11/05 14:21:50;;;;;;;0.00;0.00;;;15.00;92.90;;;;;;4194173;28;20051;-62
2022/11/05 14:24:43;;;;;;;0.00;0.00;;;14.90;92.80;;;;;;4210144;28;20051;-62
2022/11/05 14:27:43;;;;;;;0.00;0.00;;;15.00;92.90;;;;;;4208754;28;20092;-64
2022/11/05 14:30:45;;;;;;;0.03;0.03;;;14.90;92.80;;;;;;4192335;28;20094;-64
2022/11/05 14:33:37;;;;;;;0.00;0.00;;;14.90;92.80;;;;;;4204590;28;20050;-66
2022/11/05 14:36:34;;;;;;;0.00;0.00;;;15.00;92.90;;;;;;4176779;28;20627;-66
2022/11/05 14:39:22;;;;;;;0.00;0.00;;;15.00;93.00;;;;;;4179822;28;20056;-66
2022/11/05 14:42:10;;;;;;;0.43;0.43;;;15.30;92.70;;;;;;4177248;28;20407;-66
2022/11/05 14:45:20;;;;;;;0.00;0.00;;;15.90;91.60;;;;;;4201928;28;20494;-66
2022/11/05 14:48:04;;;;;;;0.00;0.00;;;16.60;90.10;;;;;;4193179;28;20183;-63
2022/11/05 14:50:44;;;;;;;0.00;0.00;;;17.50;86.90;;;;;;4175784;28;20099;-66
2022/11/05 14:53:32;;;;;;;0.00;0.00;;;18.20;84.10;;;;;;4176776;28;20055;-66
2022/11/05 14:56:17;;;;;;;1.25;0.98;;;18.90;80.90;;;;;;4176533;28;20064;-67
2022/11/05 14:59:46;;;;;;;0.20;0.20;;;19.40;78.30;;;;;;4178780;28;20226;-66
2022/11/05 15:02:33;;;;;;;0.20;0.20;;;19.70;76.20;;;;;;4148374;28;20055;-63
2022/11/05 15:05:37;;;;;;;1.48;1.05;;;20.00;74.80;;;;;;4125575;28;20398;-63